ADDS METAR Data INFO
IDs: Format: Raw Decoded Include TAF

Data at: 0148 UTC 21 Apr 2018

KGNC 210135Z AUTO 17012G21KT 5SM HZ SCT075 18/11 A2989 RMK AO2 T01820112
KGNC 210115Z AUTO 17016G22KT 5SM HZ SCT036 SCT085 19/11 A2988 RMK AO2 T01860110
KGNC 210055Z AUTO 18015G25KT 5SM HZ SCT038 SCT085 19/11 A2988 RMK AO2 T01910109
KGNC 210035Z AUTO 17018G26KT 5SM HZ CLR 20/11 A2985 RMK AO2 T01980107
KGNC 210015Z AUTO 17022G31KT 5SM HZ CLR 21/11 A2983 RMK AO2 T02050105
KGNC 202355Z AUTO 16023G32KT 5SM HZ CLR 22/10 A2981 RMK AO2 T02150102 10226 20201
KGNC 202335Z AUTO 16029G34KT 5SM HZ CLR 22/10 A2980 RMK AO2 T02200097
KGNC 202315Z AUTO 15030G35KT 4SM HZ CLR 22/10 A2979 RMK AO2 T02210095
KGNC 202255Z AUTO 14029G35KT 4SM HZ CLR 22/09 A2978 RMK AO2 T02210093
KGNC 202235Z AUTO 14030G38KT 4SM HZ CLR 22/09 A2979 RMK AO2 T02210091
KGNC 202215Z AUTO 15026G35KT 5SM HZ CLR 22/09 A2980 RMK AO2 T02190090
KGNC 202155Z AUTO 14024G33KT 5SM HZ CLR 22/09 A2982 RMK AO2 T02150088
KGNC 202135Z AUTO 15028G34KT 5SM HZ CLR 22/09 A2984 RMK AO2 T02230090
KGNC 202115Z AUTO 14026G34KT 5SM HZ CLR 21/09 A2986 RMK AO2 T02050093
KGNC 202055Z AUTO 16026G34KT 7SM CLR 21/09 A2988 RMK AO2 T02130092
KGNC 202035Z AUTO 14024G32KT 5SM HZ CLR 21/09 A2989 RMK AO2 T02140090
KGNC 202015Z AUTO 15024G32KT 7SM CLR 22/09 A2989 RMK AO2 T02190085
KGNC 201955Z AUTO 14024G31KT 7SM CLR 22/08 A2991 RMK AO2 T02200075
KGNC 201935Z AUTO 15027G32KT 5SM HZ CLR 23/07 A2992 RMK AO2 T02260065
KGNC 201915Z AUTO 15025G37KT 5SM HZ CLR 22/06 A2993 RMK AO2 T02200062
KGNC 201855Z AUTO 15023G37KT 5SM HZ CLR 22/06 A2993 RMK AO2 T02150055
KGNC 201835Z AUTO 15026G35KT 5SM HZ CLR 21/05 A2994 RMK AO2 T02100050
KGNC 201815Z AUTO 14027G37KT 4SM HZ CLR 21/05 A2995 RMK AO2 T02070054
KGNC 201755Z AUTO 15031G37KT 4SM HZ CLR 20/04 A2996 RMK AO2 T02010044 10201 20120
KGNC 201735Z AUTO 14026G33KT 7SM CLR 20/04 A2997 RMK AO2 T02000037
KGNC 201715Z AUTO 14025G34KT 7SM CLR 19/03 A3000 RMK AO2 T01900028
KGNC 201655Z AUTO 15024G33KT 7SM CLR 19/03 A3001 RMK AO2 T01850025
KGNC 201635Z AUTO 15024G33KT 10SM CLR 18/02 A3003 RMK AO2 T01790024
KGNC 201615Z AUTO 15024G29KT 10SM CLR 17/02 A3004 RMK AO2 T01720019
KGNC 201555Z AUTO 15022G32KT 10SM CLR 17/01 A3003 RMK AO2 T01680013
KGNC 201535Z AUTO 14022G30KT 10SM CLR 16/01 A3003 RMK AO2 T01590008
KGNC 201515Z AUTO 15021G30KT 10SM CLR 16/01 A3003 RMK AO2 T01560006
KGNC 201455Z AUTO 14021G28KT 10SM CLR 15/00 A3005 RMK AO2 T01510004
KGNC 201435Z AUTO 13020G26KT 10SM CLR 14/00 A3005 RMK AO2 T01430000
KGNC 201415Z AUTO 13022G27KT 10SM SCT028 14/00 A3005 RMK AO2 T01350000
KGNC 201355Z AUTO 13021G27KT 10SM OVC028 13/00 A3006 RMK AO2 T01270000
KGNC 201335Z AUTO 13016G24KT 10SM OVC028 13/00 A3006 RMK AO2 T01250000
KGNC 201315Z AUTO 14018G22KT 10SM OVC028 12/00 A3007 RMK AO2 T01231001
KGNC 201255Z AUTO 13018G28KT 10SM OVC028 12/00 A3007 RMK AO2 T01231002
KGNC 201235Z AUTO 14018G24KT 10SM OVC030 12/00 A3007 RMK AO2 T01241003
KGNC 201215Z AUTO 13014G23KT 10SM OVC030 12/00 A3007 RMK AO2 T01211005
KGNC 201155Z AUTO 13016G21KT 10SM OVC030 12/M01 A3007 RMK AO2 T01201007 10155 20116
KGNC 201135Z AUTO 13013G18KT 10SM BKN030 12/M01 A3007 RMK AO2 T01171013
KGNC 201115Z AUTO 13016G20KT 10SM SCT030 12/M02 A3006 RMK AO2 T01161016
KGNC 201055Z AUTO 13011G20KT 10SM SCT032 12/M02 A3006 RMK AO2 T01181019
KGNC 201035Z AUTO 12015G21KT 10SM CLR 12/M02 A3005 RMK AO2 T01201021
KGNC 201015Z AUTO 12015G19KT 10SM CLR 12/M02 A3006 RMK AO2 T01201023
KGNC 200955Z AUTO 12013G20KT 10SM CLR 13/M02 A3006 RMK AO2 T01251022
KGNC 200935Z AUTO 12014G20KT 10SM CLR 13/M02 A3007 RMK AO2 T01301022
KGNC 200915Z AUTO 13014G19KT 10SM BKN042 14/M02 A3007 RMK AO2 T01351020
KGNC 200855Z AUTO 12015KT 10SM OVC042 14/M02 A3009 RMK AO2 T01401023
KGNC 200835Z AUTO 12014G20KT 10SM OVC044 14/M02 A3009 RMK AO2 T01401025
KGNC 200815Z AUTO 11012G17KT 10SM OVC048 14/M02 A3011 RMK AO2 T01401025
KGNC 200755Z AUTO 11010KT 10SM OVC050 14/M02 A3013 RMK AO2 T01401025
KGNC 200735Z AUTO 12012KT 10SM OVC050 14/M03 A3014 RMK AO2 T01421029
KGNC 200715Z AUTO 12012G17KT 10SM OVC050 15/M03 A3014 RMK AO2 T01451032
KGNC 200655Z AUTO 13013KT 10SM BKN060 15/M03 A3015 RMK AO2 T01451035
KGNC 200635Z AUTO 13014G19KT 10SM OVC060 15/M04 A3016 RMK AO2 T01501036
KGNC 200615Z AUTO 13015G21KT 10SM OVC060 15/M04 A3017 RMK AO2 T01531037
KGNC 200555Z AUTO 13016G22KT 10SM OVC060 16/M04 A3018 RMK AO2 T01551040 10217 20155 402310058
KGNC 200535Z AUTO 13014KT 10SM OVC060 16/M04 A3018 RMK AO2 T01551042
KGNC 200515Z AUTO 12014G19KT 10SM OVC060 16/M04 A3018 RMK AO2 T01571045
KGNC 200455Z AUTO 11014G20KT 10SM OVC060 16/M05 A3018 RMK AO2 T01601046
KGNC 200435Z AUTO 11014G20KT 10SM OVC060 17/M05 A3018 RMK AO2 T01651049
KGNC 200415Z AUTO 12014G21KT 10SM OVC060 17/M05 A3018 RMK AO2 T01701048
KGNC 200355Z AUTO 12015G20KT 10SM OVC060 17/M05 A3018 RMK AO2 T01711050
KGNC 200335Z AUTO 12016G21KT 10SM OVC060 17/M05 A3018 RMK AO2 T01721053
KGNC 200315Z AUTO 12013KT 10SM OVC060 18/M05 A3018 RMK AO2 T01751055
KGNC 200255Z AUTO 12012KT 10SM OVC060 18/M06 A3018 RMK AO2 T01751059
KGNC 200235Z AUTO 12013KT 10SM SCT060 17/M06 A3017 RMK AO2 T01731059
KGNC 200215Z AUTO 12010G15KT 10SM CLR 17/M06 A3016 RMK AO2 T01741061
KGNC 200155Z AUTO 12013KT 10SM CLR 18/M06 A3016 RMK AO2 T01801065
KGNC 200135Z AUTO 13011G19KT 10SM CLR 19/M07 A3016 RMK AO2 T01851070
KGNC 200115Z AUTO 12013G20KT 10SM CLR 19/M07 A3016 RMK AO2 T01911075
KGNC 200055Z AUTO 13016G22KT 10SM CLR 20/M08 A3016 RMK AO2 T02001076
KGNC 200035Z AUTO 12017G24KT 10SM CLR 21/M07 A3016 RMK AO2 T02061075
KGNC 200015Z AUTO 13016G26KT 10SM CLR 21/M07 A3017 RMK AO2 T02111075
KGNC 192355Z AUTO 13019G23KT 10SM CLR 22/M07 A3017 RMK AO2 T02171066 10231 20186
KGNC 192335Z AUTO 14019G28KT 10SM CLR 22/M06 A3017 RMK AO2 T02191064
KGNC 192315Z AUTO 12019G27KT 10SM CLR 22/M06 A3017 RMK AO2 T02221059
KGNC 192255Z AUTO 13018G24KT 10SM CLR 22/M06 A3018 RMK AO2 T02221059
KGNC 192235Z AUTO 14018G27KT 10SM CLR 23/M06 A3019 RMK AO2 T02251057
KGNC 192215Z AUTO 13018G24KT 10SM CLR 23/M06 A3020 RMK AO2 T02301058
KGNC 192155Z AUTO 13018G23KT 10SM CLR 23/M05 A3020 RMK AO2 T02271055
KGNC 192135Z AUTO 14021G27KT 10SM CLR 23/M06 A3021 RMK AO2 T02281056
KGNC 192115Z AUTO 13019G23KT 10SM CLR 23/M06 A3022 RMK AO2 T02281057
KGNC 192055Z AUTO 13016G23KT 10SM CLR 22/M06 A3023 RMK AO2 T02241057
KGNC 192035Z AUTO 13020G24KT 10SM SCT060 22/M06 A3025 RMK AO2 T02211061
KGNC 192015Z AUTO 13017G23KT 10SM SCT065 SCT070 23/M06 A3026 RMK AO2 T02301057
KGNC 191955Z AUTO 12016G24KT 10SM SCT065 SCT070 22/M06 A3028 RMK AO2 T02171064
KGNC 191935Z AUTO 12019G23KT 10SM BKN065 21/M06 A3029 RMK AO2 T02131062
KGNC 191915Z AUTO 12015G21KT 10SM BKN060 BKN065 21/M06 A3031 RMK AO2 T02121061
KGNC 191855Z AUTO 13016G23KT 10SM SCT060 OVC065 20/M07 A3032 RMK AO2 T01981067
KGNC 191835Z AUTO 13013G17KT 10SM OVC060 20/M07 A3033 RMK AO2 T01961067
KGNC 191815Z AUTO 12014G18KT 10SM OVC060 19/M07 A3034 RMK AO2 T01901068
KGNC 191755Z AUTO 15014G18KT 10SM OVC060 19/M07 A3036 RMK AO2 T01881068 10188 20058
KGNC 191735Z AUTO 12013G23KT 10SM OVC060 18/M07 A3036 RMK AO2 T01821071
KGNC 191715Z AUTO 11015G21KT 10SM BKN060 18/M07 A3036 RMK AO2 T01811068
KGNC 191655Z AUTO 13013G19KT 10SM SCT060 17/M07 A3037 RMK AO2 T01741066
KGNC 191635Z AUTO 13017G21KT 10SM BKN060 18/M06 A3036 RMK AO2 T01771065
KGNC 191615Z AUTO 13015G23KT 10SM BKN060 17/M06 A3036 RMK AO2 T01711064
KGNC 191555Z AUTO 13015G22KT 10SM OVC050 17/M06 A3036 RMK AO2 T01651065
KGNC 191535Z AUTO 12016G21KT 10SM OVC050 16/M07 A3036 RMK AO2 T01591066
KGNC 191515Z AUTO 10016KT 10SM SCT050 16/M06 A3036 RMK AO2 T01551061
KGNC 191455Z AUTO 11012G20KT 10SM CLR 14/M06 A3036 RMK AO2 T01401059
KGNC 191435Z AUTO 11012G19KT 10SM CLR 13/M06 A3036 RMK AO2 T01301062
KGNC 191415Z AUTO 10012G17KT 10SM CLR 12/M07 A3035 RMK AO2 T01181069
KGNC 191355Z AUTO 09010G14KT 10SM CLR 10/M07 A3034 RMK AO2 T01021066